sensor_id;sensor_type;location;lat;lon;timestamp;P1;durP1;ratioP1;P2;durP2;ratioP2
5845;SDS011;2949;50.778;7.094;2023-08-06T00:02:04;7.70;;;3.13;;
5845;SDS011;2949;50.778;7.094;2023-08-06T00:04:29;2.20;;;2.10;;
5845;SDS011;2949;50.778;7.094;2023-08-06T00:06:55;7.63;;;3.13;;
5845;SDS011;2949;50.778;7.094;2023-08-06T00:09:21;4.40;;;2.73;;
5845;SDS011;2949;50.778;7.094;2023-08-06T00:11:46;7.40;;;2.83;;
5845;SDS011;2949;50.778;7.094;2023-08-06T00:14:12;5.13;;;2.70;;
5845;SDS011;2949;50.778;7.094;2023-08-06T00:16:40;3.90;;;2.80;;
5845;SDS011;2949;50.778;7.094;2023-08-06T00:19:08;3.17;;;2.97;;
5845;SDS011;2949;50.778;7.094;2023-08-06T00:21:33;3.30;;;3.00;;
5845;SDS011;2949;50.778;7.094;2023-08-06T00:23:58;3.60;;;3.20;;
5845;SDS011;2949;50.778;7.094;2023-08-06T00:26:24;3.97;;;2.93;;
5845;SDS011;2949;50.778;7.094;2023-08-06T00:28:49;4.97;;;3.97;;
5845;SDS011;2949;50.778;7.094;2023-08-06T00:31:15;2.83;;;2.53;;
5845;SDS011;2949;50.778;7.094;2023-08-06T00:33:40;2.80;;;2.60;;
5845;SDS011;2949;50.778;7.094;2023-08-06T00:36:06;4.40;;;2.93;;
5845;SDS011;2949;50.778;7.094;2023-08-06T00:38:31;3.87;;;3.17;;
5845;SDS011;2949;50.778;7.094;2023-08-06T00:40:57;4.00;;;2.93;;
5845;SDS011;2949;50.778;7.094;2023-08-06T00:43:22;5.00;;;3.00;;
5845;SDS011;2949;50.778;7.094;2023-08-06T00:45:48;9.37;;;3.33;;
5845;SDS011;2949;50.778;7.094;2023-08-06T00:48:14;3.67;;;3.00;;
5845;SDS011;2949;50.778;7.094;2023-08-06T00:50:40;13.30;;;2.90;;
5845;SDS011;2949;50.778;7.094;2023-08-06T00:53:05;3.57;;;3.13;;
5845;SDS011;2949;50.778;7.094;2023-08-06T00:55:32;4.40;;;3.30;;
5845;SDS011;2949;50.778;7.094;2023-08-06T00:57:58;4.40;;;3.27;;
5845;SDS011;2949;50.778;7.094;2023-08-06T01:00:24;3.20;;;2.93;;
5845;SDS011;2949;50.778;7.094;2023-08-06T01:02:50;5.30;;;3.10;;
5845;SDS011;2949;50.778;7.094;2023-08-06T01:05:17;3.40;;;2.80;;
5845;SDS011;2949;50.778;7.094;2023-08-06T01:07:51;5.43;;;3.30;;
5845;SDS011;2949;50.778;7.094;2023-08-06T01:10:58;7.23;;;2.83;;
5845;SDS011;2949;50.778;7.094;2023-08-06T01:13:48;3.00;;;2.80;;
5845;SDS011;2949;50.778;7.094;2023-08-06T01:16:18;5.37;;;3.70;;
5845;SDS011;2949;50.778;7.094;2023-08-06T01:18:46;4.40;;;2.80;;
5845;SDS011;2949;50.778;7.094;2023-08-06T01:21:14;2.70;;;2.50;;
5845;SDS011;2949;50.778;7.094;2023-08-06T01:23:41;3.93;;;3.50;;
5845;SDS011;2949;50.778;7.094;2023-08-06T01:31:26;4.53;;;2.90;;
5845;SDS011;2949;50.778;7.094;2023-08-06T01:33:55;3.03;;;2.83;;
5845;SDS011;2949;50.778;7.094;2023-08-06T01:36:23;4.50;;;2.53;;
5845;SDS011;2949;50.778;7.094;2023-08-06T01:38:51;3.57;;;2.40;;
5845;SDS011;2949;50.778;7.094;2023-08-06T01:41:17;2.57;;;2.03;;
5845;SDS011;2949;50.778;7.094;2023-08-06T01:43:43;4.27;;;2.73;;
5845;SDS011;2949;50.778;7.094;2023-08-06T01:46:08;3.00;;;2.80;;
5845;SDS011;2949;50.778;7.094;2023-08-06T01:48:34;5.20;;;3.40;;
5845;SDS011;2949;50.778;7.094;2023-08-06T01:51:00;8.57;;;2.77;;
5845;SDS011;2949;50.778;7.094;2023-08-06T01:53:25;2.67;;;2.47;;
5845;SDS011;2949;50.778;7.094;2023-08-06T01:55:51;3.17;;;2.20;;
5845;SDS011;2949;50.778;7.094;2023-08-06T01:58:16;3.23;;;1.77;;
5845;SDS011;2949;50.778;7.094;2023-08-06T02:00:42;8.30;;;2.60;;
5845;SDS011;2949;50.778;7.094;2023-08-06T02:03:07;4.47;;;2.73;;
5845;SDS011;2949;50.778;7.094;2023-08-06T02:05:33;2.77;;;2.20;;
5845;SDS011;2949;50.778;7.094;2023-08-06T02:07:59;2.80;;;2.00;;
5845;SDS011;2949;50.778;7.094;2023-08-06T02:10:24;4.67;;;2.27;;
5845;SDS011;2949;50.778;7.094;2023-08-06T02:12:49;2.73;;;2.20;;
5845;SDS011;2949;50.778;7.094;2023-08-06T02:15:15;3.27;;;1.70;;
5845;SDS011;2949;50.778;7.094;2023-08-06T02:17:40;3.53;;;2.63;;
5845;SDS011;2949;50.778;7.094;2023-08-06T02:20:06;6.53;;;3.17;;
5845;SDS011;2949;50.778;7.094;2023-08-06T02:22:33;2.73;;;2.53;;
5845;SDS011;2949;50.778;7.094;2023-08-06T02:24:58;6.17;;;2.37;;
5845;SDS011;2949;50.778;7.094;2023-08-06T02:27:24;6.13;;;2.20;;
5845;SDS011;2949;50.778;7.094;2023-08-06T02:29:50;2.90;;;2.70;;
5845;SDS011;2949;50.778;7.094;2023-08-06T02:32:15;4.87;;;2.00;;
5845;SDS011;2949;50.778;7.094;2023-08-06T02:34:41;3.70;;;3.20;;
5845;SDS011;2949;50.778;7.094;2023-08-06T02:37:06;2.37;;;2.17;;
5845;SDS011;2949;50.778;7.094;2023-08-06T02:39:32;2.90;;;2.70;;
5845;SDS011;2949;50.778;7.094;2023-08-06T02:41:59;6.63;;;2.63;;
5845;SDS011;2949;50.778;7.094;2023-08-06T02:44:27;2.80;;;2.53;;
5845;SDS011;2949;50.778;7.094;2023-08-06T02:46:53;6.10;;;3.07;;
5845;SDS011;2949;50.778;7.094;2023-08-06T02:49:18;2.00;;;1.90;;
5845;SDS011;2949;50.778;7.094;2023-08-06T02:51:47;1.83;;;1.73;;
5845;SDS011;2949;50.778;7.094;2023-08-06T02:54:12;4.00;;;2.17;;
5845;SDS011;2949;50.778;7.094;2023-08-06T02:56:38;6.53;;;2.57;;
5845;SDS011;2949;50.778;7.094;2023-08-06T02:59:03;2.90;;;2.27;;
5845;SDS011;2949;50.778;7.094;2023-08-06T03:01:29;2.80;;;1.93;;
5845;SDS011;2949;50.778;7.094;2023-08-06T03:03:54;2.30;;;1.93;;
5845;SDS011;2949;50.778;7.094;2023-08-06T03:06:20;4.40;;;2.30;;
5845;SDS011;2949;50.778;7.094;2023-08-06T03:08:45;6.20;;;2.40;;
5845;SDS011;2949;50.778;7.094;2023-08-06T03:11:11;2.57;;;2.03;;
5845;SDS011;2949;50.778;7.094;2023-08-06T03:13:36;3.53;;;2.30;;
5845;SDS011;2949;50.778;7.094;2023-08-06T03:16:02;2.03;;;1.93;;
5845;SDS011;2949;50.778;7.094;2023-08-06T03:18:27;12.23;;;2.53;;
5845;SDS011;2949;50.778;7.094;2023-08-06T03:20:53;3.10;;;2.47;;
5845;SDS011;2949;50.778;7.094;2023-08-06T03:23:19;2.40;;;1.80;;
5845;SDS011;2949;50.778;7.094;2023-08-06T03:25:45;2.53;;;2.23;;
5845;SDS011;2949;50.778;7.094;2023-08-06T03:28:11;2.37;;;2.17;;
5845;SDS011;2949;50.778;7.094;2023-08-06T03:30:36;2.87;;;2.50;;
5845;SDS011;2949;50.778;7.094;2023-08-06T03:33:02;3.60;;;3.10;;
5845;SDS011;2949;50.778;7.094;2023-08-06T03:35:28;5.80;;;2.27;;
5845;SDS011;2949;50.778;7.094;2023-08-06T03:37:53;3.37;;;2.43;;
5845;SDS011;2949;50.778;7.094;2023-08-06T03:40:19;3.70;;;2.40;;
5845;SDS011;2949;50.778;7.094;2023-08-06T03:42:44;4.67;;;2.53;;
5845;SDS011;2949;50.778;7.094;2023-08-06T03:45:10;3.83;;;2.03;;
5845;SDS011;2949;50.778;7.094;2023-08-06T03:47:35;3.53;;;2.50;;
5845;SDS011;2949;50.778;7.094;2023-08-06T03:50:01;4.53;;;2.80;;
5845;SDS011;2949;50.778;7.094;2023-08-06T03:52:26;5.53;;;2.30;;
5845;SDS011;2949;50.778;7.094;2023-08-06T03:54:52;3.63;;;2.60;;
5845;SDS011;2949;50.778;7.094;2023-08-06T03:57:17;2.80;;;2.20;;
5845;SDS011;2949;50.778;7.094;2023-08-06T03:59:43;4.20;;;2.40;;
5845;SDS011;2949;50.778;7.094;2023-08-06T04:02:08;3.83;;;2.63;;
5845;SDS011;2949;50.778;7.094;2023-08-06T04:04:34;3.60;;;2.47;;
5845;SDS011;2949;50.778;7.094;2023-08-06T04:06:59;3.10;;;2.50;;
5845;SDS011;2949;50.778;7.094;2023-08-06T04:09:28;4.60;;;2.90;;
5845;SDS011;2949;50.778;7.094;2023-08-06T04:11:53;2.67;;;2.53;;
5845;SDS011;2949;50.778;7.094;2023-08-06T04:14:19;4.63;;;2.47;;
5845;SDS011;2949;50.778;7.094;2023-08-06T04:16:44;3.80;;;2.70;;
5845;SDS011;2949;50.778;7.094;2023-08-06T04:19:10;3.83;;;2.60;;
5845;SDS011;2949;50.778;7.094;2023-08-06T04:21:35;4.83;;;2.60;;
5845;SDS011;2949;50.778;7.094;2023-08-06T04:24:01;3.93;;;2.33;;
5845;SDS011;2949;50.778;7.094;2023-08-06T04:26:26;3.43;;;2.40;;
5845;SDS011;2949;50.778;7.094;2023-08-06T04:28:52;5.63;;;2.60;;
5845;SDS011;2949;50.778;7.094;2023-08-06T04:31:17;3.97;;;2.47;;
5845;SDS011;2949;50.778;7.094;2023-08-06T04:33:43;5.77;;;2.73;;
5845;SDS011;2949;50.778;7.094;2023-08-06T04:36:08;4.37;;;2.20;;
5845;SDS011;2949;50.778;7.094;2023-08-06T04:38:34;4.83;;;2.47;;
5845;SDS011;2949;50.778;7.094;2023-08-06T04:41:01;3.97;;;2.83;;
5845;SDS011;2949;50.778;7.094;2023-08-06T04:43:27;3.00;;;2.23;;
5845;SDS011;2949;50.778;7.094;2023-08-06T04:45:53;2.57;;;2.47;;
5845;SDS011;2949;50.778;7.094;2023-08-06T04:48:19;4.23;;;2.47;;
5845;SDS011;2949;50.778;7.094;2023-08-06T04:50:49;6.07;;;3.10;;
5845;SDS011;2949;50.778;7.094;2023-08-06T04:53:15;5.33;;;2.40;;
5845;SDS011;2949;50.778;7.094;2023-08-06T04:55:41;4.07;;;2.10;;
5845;SDS011;2949;50.778;7.094;2023-08-06T04:58:08;10.50;;;2.73;;
5845;SDS011;2949;50.778;7.094;2023-08-06T05:00:34;9.30;;;2.60;;
5845;SDS011;2949;50.778;7.094;2023-08-06T05:03:00;4.27;;;2.20;;
5845;SDS011;2949;50.778;7.094;2023-08-06T05:05:26;9.23;;;2.30;;
5845;SDS011;2949;50.778;7.094;2023-08-06T05:07:53;2.07;;;1.90;;
5845;SDS011;2949;50.778;7.094;2023-08-06T05:10:20;2.23;;;2.10;;
5845;SDS011;2949;50.778;7.094;2023-08-06T05:12:46;1.80;;;1.70;;
5845;SDS011;2949;50.778;7.094;2023-08-06T05:15:11;4.43;;;1.93;;
5845;SDS011;2949;50.778;7.094;2023-08-06T05:17:37;2.10;;;2.00;;
5845;SDS011;2949;50.778;7.094;2023-08-06T05:20:03;2.57;;;1.83;;
5845;SDS011;2949;50.778;7.094;2023-08-06T05:22:29;3.90;;;1.90;;
5845;SDS011;2949;50.778;7.094;2023-08-06T05:24:54;3.60;;;1.47;;
5845;SDS011;2949;50.778;7.094;2023-08-06T05:27:20;2.97;;;1.77;;
5845;SDS011;2949;50.778;7.094;2023-08-06T05:29:45;2.03;;;1.77;;
5845;SDS011;2949;50.778;7.094;2023-08-06T05:32:13;1.60;;;1.50;;
5845;SDS011;2949;50.778;7.094;2023-08-06T05:34:38;2.53;;;1.70;;
5845;SDS011;2949;50.778;7.094;2023-08-06T05:37:04;4.17;;;1.80;;
5845;SDS011;2949;50.778;7.094;2023-08-06T05:39:30;1.63;;;1.50;;
5845;SDS011;2949;50.778;7.094;2023-08-06T05:41:55;3.27;;;1.40;;
5845;SDS011;2949;50.778;7.094;2023-08-06T05:44:21;2.27;;;1.30;;
5845;SDS011;2949;50.778;7.094;2023-08-06T05:46:48;4.20;;;1.00;;
5845;SDS011;2949;50.778;7.094;2023-08-06T05:49:14;1.33;;;1.23;;
5845;SDS011;2949;50.778;7.094;2023-08-06T05:51:40;2.67;;;1.63;;
5845;SDS011;2949;50.778;7.094;2023-08-06T05:54:06;1.27;;;0.90;;
5845;SDS011;2949;50.778;7.094;2023-08-06T05:56:32;1.57;;;1.40;;
5845;SDS011;2949;50.778;7.094;2023-08-06T05:58:57;1.10;;;1.10;;
5845;SDS011;2949;50.778;7.094;2023-08-06T06:01:23;1.20;;;1.20;;
5845;SDS011;2949;50.778;7.094;2023-08-06T06:03:48;1.53;;;1.43;;
5845;SDS011;2949;50.778;7.094;2023-08-06T06:06:14;2.20;;;1.27;;
5845;SDS011;2949;50.778;7.094;2023-08-06T06:08:39;0.97;;;0.97;;
5845;SDS011;2949;50.778;7.094;2023-08-06T06:11:05;1.70;;;1.37;;
5845;SDS011;2949;50.778;7.094;2023-08-06T06:13:30;4.60;;;1.60;;
5845;SDS011;2949;50.778;7.094;2023-08-06T06:15:56;1.07;;;0.90;;
5845;SDS011;2949;50.778;7.094;2023-08-06T06:18:22;2.20;;;1.40;;
5845;SDS011;2949;50.778;7.094;2023-08-06T06:20:48;3.50;;;1.97;;
5845;SDS011;2949;50.778;7.094;2023-08-06T06:23:13;1.07;;;1.07;;
5845;SDS011;2949;50.778;7.094;2023-08-06T06:25:43;1.10;;;1.00;;
5845;SDS011;2949;50.778;7.094;2023-08-06T06:28:11;1.27;;;1.10;;
5845;SDS011;2949;50.778;7.094;2023-08-06T06:30:37;2.60;;;0.90;;
5845;SDS011;2949;50.778;7.094;2023-08-06T06:33:02;1.47;;;1.37;;
5845;SDS011;2949;50.778;7.094;2023-08-06T06:35:28;1.03;;;0.90;;
5845;SDS011;2949;50.778;7.094;2023-08-06T06:37:53;1.00;;;1.00;;
5845;SDS011;2949;50.778;7.094;2023-08-06T06:40:19;1.13;;;0.87;;
5845;SDS011;2949;50.778;7.094;2023-08-06T06:42:44;1.07;;;0.93;;
5845;SDS011;2949;50.778;7.094;2023-08-06T06:45:10;1.33;;;0.70;;
5845;SDS011;2949;50.778;7.094;2023-08-06T06:47:35;1.00;;;1.00;;
5845;SDS011;2949;50.778;7.094;2023-08-06T06:50:01;0.93;;;0.93;;
5845;SDS011;2949;50.778;7.094;2023-08-06T06:52:26;1.33;;;0.83;;
5845;SDS011;2949;50.778;7.094;2023-08-06T06:54:52;1.17;;;0.57;;
5845;SDS011;2949;50.778;7.094;2023-08-06T06:57:17;0.70;;;0.57;;
5845;SDS011;2949;50.778;7.094;2023-08-06T06:59:43;0.50;;;0.50;;
5845;SDS011;2949;50.778;7.094;2023-08-06T07:02:08;0.80;;;0.80;;
5845;SDS011;2949;50.778;7.094;2023-08-06T07:04:34;4.23;;;0.80;;
5845;SDS011;2949;50.778;7.094;2023-08-06T07:07:00;0.97;;;0.80;;
5845;SDS011;2949;50.778;7.094;2023-08-06T07:09:25;0.40;;;0.40;;
5845;SDS011;2949;50.778;7.094;2023-08-06T07:11:51;1.40;;;0.70;;
5845;SDS011;2949;50.778;7.094;2023-08-06T07:14:18;0.63;;;0.63;;
5845;SDS011;2949;50.778;7.094;2023-08-06T07:16:44;1.43;;;0.60;;
5845;SDS011;2949;50.778;7.094;2023-08-06T07:19:09;4.67;;;0.90;;
5845;SDS011;2949;50.778;7.094;2023-08-06T07:21:35;2.23;;;0.73;;
5845;SDS011;2949;50.778;7.094;2023-08-06T07:24:00;0.60;;;0.60;;
5845;SDS011;2949;50.778;7.094;2023-08-06T07:26:26;1.30;;;0.73;;
5845;SDS011;2949;50.778;7.094;2023-08-06T07:28:51;2.37;;;0.70;;
5845;SDS011;2949;50.778;7.094;2023-08-06T07:31:17;1.37;;;0.80;;
5845;SDS011;2949;50.778;7.094;2023-08-06T07:33:42;1.53;;;0.70;;
5845;SDS011;2949;50.778;7.094;2023-08-06T07:36:11;0.70;;;0.70;;
5845;SDS011;2949;50.778;7.094;2023-08-06T07:38:39;1.63;;;0.53;;
5845;SDS011;2949;50.778;7.094;2023-08-06T07:41:04;0.83;;;0.73;;
5845;SDS011;2949;50.778;7.094;2023-08-06T07:43:30;1.27;;;0.70;;
5845;SDS011;2949;50.778;7.094;2023-08-06T07:45:59;3.03;;;1.10;;
5845;SDS011;2949;50.778;7.094;2023-08-06T07:48:26;1.00;;;0.80;;
5845;SDS011;2949;50.778;7.094;2023-08-06T07:50:54;3.17;;;0.73;;
5845;SDS011;2949;50.778;7.094;2023-08-06T07:53:24;9.63;;;0.90;;
5845;SDS011;2949;50.778;7.094;2023-08-06T07:55:54;0.80;;;0.70;;
5845;SDS011;2949;50.778;7.094;2023-08-06T07:58:20;0.90;;;0.90;;
5845;SDS011;2949;50.778;7.094;2023-08-06T08:00:46;0.80;;;0.67;;
5845;SDS011;2949;50.778;7.094;2023-08-06T08:03:12;1.30;;;0.87;;
5845;SDS011;2949;50.778;7.094;2023-08-06T08:05:39;3.67;;;0.97;;
5845;SDS011;2949;50.778;7.094;2023-08-06T08:08:05;4.13;;;0.70;;
5845;SDS011;2949;50.778;7.094;2023-08-06T08:10:31;1.30;;;0.60;;
5845;SDS011;2949;50.778;7.094;2023-08-06T08:12:57;1.00;;;1.00;;
5845;SDS011;2949;50.778;7.094;2023-08-06T08:15:24;3.60;;;1.00;;
5845;SDS011;2949;50.778;7.094;2023-08-06T08:17:51;1.23;;;1.03;;
5845;SDS011;2949;50.778;7.094;2023-08-06T08:20:17;1.33;;;1.23;;
5845;SDS011;2949;50.778;7.094;2023-08-06T08:22:42;1.07;;;1.00;;
5845;SDS011;2949;50.778;7.094;2023-08-06T08:25:08;2.10;;;1.03;;
5845;SDS011;2949;50.778;7.094;2023-08-06T08:27:34;1.13;;;1.00;;
5845;SDS011;2949;50.778;7.094;2023-08-06T08:29:59;3.77;;;1.10;;
5845;SDS011;2949;50.778;7.094;2023-08-06T08:32:25;3.90;;;1.00;;
5845;SDS011;2949;50.778;7.094;2023-08-06T08:34:50;1.80;;;1.17;;
5845;SDS011;2949;50.778;7.094;2023-08-06T08:37:16;7.77;;;1.20;;
5845;SDS011;2949;50.778;7.094;2023-08-06T08:39:41;1.27;;;0.80;;
5845;SDS011;2949;50.778;7.094;2023-08-06T08:42:07;1.70;;;1.30;;
5845;SDS011;2949;50.778;7.094;2023-08-06T08:44:34;1.47;;;0.87;;
5845;SDS011;2949;50.778;7.094;2023-08-06T08:47:04;1.23;;;1.23;;
5845;SDS011;2949;50.778;7.094;2023-08-06T08:49:34;5.13;;;1.70;;
5845;SDS011;2949;50.778;7.094;2023-08-06T08:52:00;1.23;;;1.10;;
5845;SDS011;2949;50.778;7.094;2023-08-06T08:54:27;2.70;;;1.80;;
5845;SDS011;2949;50.778;7.094;2023-08-06T08:56:55;2.00;;;1.37;;
5845;SDS011;2949;50.778;7.094;2023-08-06T08:59:21;2.93;;;1.10;;
5845;SDS011;2949;50.778;7.094;2023-08-06T09:01:47;1.77;;;1.20;;
5845;SDS011;2949;50.778;7.094;2023-08-06T09:04:17;1.40;;;1.30;;
5845;SDS011;2949;50.778;7.094;2023-08-06T09:06:43;2.50;;;1.50;;
5845;SDS011;2949;50.778;7.094;2023-08-06T09:09:12;2.77;;;1.10;;
5845;SDS011;2949;50.778;7.094;2023-08-06T09:11:50;0.90;;;0.90;;
5845;SDS011;2949;50.778;7.094;2023-08-06T09:14:16;0.80;;;0.80;;
5845;SDS011;2949;50.778;7.094;2023-08-06T09:16:43;0.90;;;0.90;;
5845;SDS011;2949;50.778;7.094;2023-08-06T09:19:12;1.57;;;0.50;;
5845;SDS011;2949;50.778;7.094;2023-08-06T09:21:40;6.00;;;0.90;;
5845;SDS011;2949;50.778;7.094;2023-08-06T09:24:09;4.43;;;1.00;;
5845;SDS011;2949;50.778;7.094;2023-08-06T09:26:37;0.53;;;0.53;;
5845;SDS011;2949;50.778;7.094;2023-08-06T09:29:04;0.67;;;0.67;;
5845;SDS011;2949;50.778;7.094;2023-08-06T09:31:41;1.07;;;1.07;;
5845;SDS011;2949;50.778;7.094;2023-08-06T09:34:14;0.40;;;0.40;;
5845;SDS011;2949;50.778;7.094;2023-08-06T09:36:51;0.30;;;0.23;;
5845;SDS011;2949;50.778;7.094;2023-08-06T09:39:18;0.50;;;0.30;;
5845;SDS011;2949;50.778;7.094;2023-08-06T09:41:46;0.40;;;0.20;;
5845;SDS011;2949;50.778;7.094;2023-08-06T09:44:16;0.30;;;0.30;;
5845;SDS011;2949;50.778;7.094;2023-08-06T09:46:43;0.40;;;0.30;;
5845;SDS011;2949;50.778;7.094;2023-08-06T09:49:15;0.50;;;0.50;;
5845;SDS011;2949;50.778;7.094;2023-08-06T09:51:42;0.30;;;0.20;;
5845;SDS011;2949;50.778;7.094;2023-08-06T09:54:09;0.40;;;0.40;;
5845;SDS011;2949;50.778;7.094;2023-08-06T09:56:39;3.60;;;0.40;;
5845;SDS011;2949;50.778;7.094;2023-08-06T09:59:06;0.53;;;0.40;;
5845;SDS011;2949;50.778;7.094;2023-08-06T10:01:33;0.30;;;0.20;;
5845;SDS011;2949;50.778;7.094;2023-08-06T10:04:00;0.77;;;0.30;;
5845;SDS011;2949;50.778;7.094;2023-08-06T10:06:28;3.83;;;0.30;;
5845;SDS011;2949;50.778;7.094;2023-08-06T10:08:53;0.30;;;0.30;;
5845;SDS011;2949;50.778;7.094;2023-08-06T10:11:20;0.50;;;0.50;;
5845;SDS011;2949;50.778;7.094;2023-08-06T10:13:48;0.93;;;0.47;;
5845;SDS011;2949;50.778;7.094;2023-08-06T10:16:17;1.00;;;0.43;;
5845;SDS011;2949;50.778;7.094;2023-08-06T10:18:43;0.37;;;0.30;;
5845;SDS011;2949;50.778;7.094;2023-08-06T10:21:09;2.00;;;0.60;;
5845;SDS011;2949;50.778;7.094;2023-08-06T10:23:36;0.83;;;0.30;;
5845;SDS011;2949;50.778;7.094;2023-08-06T10:26:05;0.83;;;0.40;;
5845;SDS011;2949;50.778;7.094;2023-08-06T10:28:34;0.57;;;0.57;;
5845;SDS011;2949;50.778;7.094;2023-08-06T10:31:01;1.17;;;0.40;;
5845;SDS011;2949;50.778;7.094;2023-08-06T10:33:40;0.60;;;0.60;;
5845;SDS011;2949;50.778;7.094;2023-08-06T10:36:08;1.50;;;1.00;;
5845;SDS011;2949;50.778;7.094;2023-08-06T10:38:34;0.97;;;0.97;;
5845;SDS011;2949;50.778;7.094;2023-08-06T10:41:02;2.53;;;1.60;;
5845;SDS011;2949;50.778;7.094;2023-08-06T10:43:33;5.33;;;2.27;;
5845;SDS011;2949;50.778;7.094;2023-08-06T10:45:59;2.57;;;1.70;;
5845;SDS011;2949;50.778;7.094;2023-08-06T10:48:35;1.87;;;1.77;;
5845;SDS011;2949;50.778;7.094;2023-08-06T10:51:02;1.90;;;1.47;;
5845;SDS011;2949;50.778;7.094;2023-08-06T10:53:29;1.30;;;1.20;;
5845;SDS011;2949;50.778;7.094;2023-08-06T10:55:55;2.47;;;1.20;;
5845;SDS011;2949;50.778;7.094;2023-08-06T10:58:20;3.37;;;1.30;;
5845;SDS011;2949;50.778;7.094;2023-08-06T11:00:46;2.20;;;1.60;;
5845;SDS011;2949;50.778;7.094;2023-08-06T11:03:12;2.93;;;1.50;;
5845;SDS011;2949;50.778;7.094;2023-08-06T11:05:38;7.83;;;1.40;;
5845;SDS011;2949;50.778;7.094;2023-08-06T11:08:04;1.77;;;1.53;;
5845;SDS011;2949;50.778;7.094;2023-08-06T11:10:29;3.30;;;1.53;;
5845;SDS011;2949;50.778;7.094;2023-08-06T11:13:00;3.57;;;1.10;;
5845;SDS011;2949;50.778;7.094;2023-08-06T11:15:27;4.90;;;1.03;;
5845;SDS011;2949;50.778;7.094;2023-08-06T11:17:53;4.10;;;1.40;;
5845;SDS011;2949;50.778;7.094;2023-08-06T11:20:19;3.20;;;1.23;;
5845;SDS011;2949;50.778;7.094;2023-08-06T11:22:47;12.13;;;1.77;;
5845;SDS011;2949;50.778;7.094;2023-08-06T11:25:12;4.60;;;0.90;;
5845;SDS011;2949;50.778;7.094;2023-08-06T11:27:38;4.60;;;1.47;;
5845;SDS011;2949;50.778;7.094;2023-08-06T11:30:04;5.17;;;0.97;;
5845;SDS011;2949;50.778;7.094;2023-08-06T11:32:30;1.70;;;0.67;;
5845;SDS011;2949;50.778;7.094;2023-08-06T11:34:55;3.40;;;1.30;;
5845;SDS011;2949;50.778;7.094;2023-08-06T11:37:21;5.10;;;1.70;;
5845;SDS011;2949;50.778;7.094;2023-08-06T11:39:50;3.23;;;1.10;;
5845;SDS011;2949;50.778;7.094;2023-08-06T11:42:16;5.23;;;1.70;;
5845;SDS011;2949;50.778;7.094;2023-08-06T11:44:42;3.00;;;1.00;;
5845;SDS011;2949;50.778;7.094;2023-08-06T11:47:12;2.87;;;0.73;;
5845;SDS011;2949;50.778;7.094;2023-08-06T11:52:18;5.90;;;1.40;;
5845;SDS011;2949;50.778;7.094;2023-08-06T11:54:59;9.07;;;1.13;;
5845;SDS011;2949;50.778;7.094;2023-08-06T11:57:31;4.50;;;1.03;;
5845;SDS011;2949;50.778;7.094;2023-08-06T12:00:07;3.13;;;1.10;;
5845;SDS011;2949;50.778;7.094;2023-08-06T12:02:35;3.90;;;0.83;;
5845;SDS011;2949;50.778;7.094;2023-08-06T12:07:41;2.43;;;0.93;;
5845;SDS011;2949;50.778;7.094;2023-08-06T12:10:08;3.30;;;1.00;;
5845;SDS011;2949;50.778;7.094;2023-08-06T12:12:34;5.77;;;0.90;;
5845;SDS011;2949;50.778;7.094;2023-08-06T12:15:00;1.73;;;1.10;;
5845;SDS011;2949;50.778;7.094;2023-08-06T12:17:26;6.33;;;0.80;;
5845;SDS011;2949;50.778;7.094;2023-08-06T12:19:51;1.20;;;1.10;;
5845;SDS011;2949;50.778;7.094;2023-08-06T12:22:17;2.17;;;1.40;;
5845;SDS011;2949;50.778;7.094;2023-08-06T12:24:45;4.73;;;1.00;;
5845;SDS011;2949;50.778;7.094;2023-08-06T12:27:11;4.63;;;0.83;;
5845;SDS011;2949;50.778;7.094;2023-08-06T12:29:41;3.70;;;1.10;;
5845;SDS011;2949;50.778;7.094;2023-08-06T12:32:08;2.53;;;0.90;;
5845;SDS011;2949;50.778;7.094;2023-08-06T12:34:34;2.30;;;0.63;;
5845;SDS011;2949;50.778;7.094;2023-08-06T12:36:59;3.10;;;1.47;;
5845;SDS011;2949;50.778;7.094;2023-08-06T12:39:25;2.80;;;1.20;;
5845;SDS011;2949;50.778;7.094;2023-08-06T12:41:53;3.07;;;0.77;;
5845;SDS011;2949;50.778;7.094;2023-08-06T12:44:19;1.90;;;1.37;;
5845;SDS011;2949;50.778;7.094;2023-08-06T12:46:45;1.57;;;0.83;;
5845;SDS011;2949;50.778;7.094;2023-08-06T12:49:10;2.37;;;1.00;;
5845;SDS011;2949;50.778;7.094;2023-08-06T12:51:36;1.03;;;0.77;;
5845;SDS011;2949;50.778;7.094;2023-08-06T12:54:01;1.70;;;1.10;;
5845;SDS011;2949;50.778;7.094;2023-08-06T12:56:27;4.20;;;1.50;;
5845;SDS011;2949;50.778;7.094;2023-08-06T12:58:54;1.73;;;0.73;;
5845;SDS011;2949;50.778;7.094;2023-08-06T13:01:19;0.60;;;0.53;;
5845;SDS011;2949;50.778;7.094;2023-08-06T13:03:45;1.50;;;0.63;;
5845;SDS011;2949;50.778;7.094;2023-08-06T13:06:10;0.80;;;0.53;;
5845;SDS011;2949;50.778;7.094;2023-08-06T13:08:37;0.43;;;0.43;;
5845;SDS011;2949;50.778;7.094;2023-08-06T13:11:02;1.03;;;0.60;;
5845;SDS011;2949;50.778;7.094;2023-08-06T13:13:28;0.40;;;0.40;;
5845;SDS011;2949;50.778;7.094;2023-08-06T13:15:54;1.23;;;0.67;;
5845;SDS011;2949;50.778;7.094;2023-08-06T13:18:19;1.83;;;0.60;;
5845;SDS011;2949;50.778;7.094;2023-08-06T13:20:45;2.83;;;0.63;;
5845;SDS011;2949;50.778;7.094;2023-08-06T13:23:12;0.60;;;0.50;;
5845;SDS011;2949;50.778;7.094;2023-08-06T13:25:40;2.23;;;0.60;;
5845;SDS011;2949;50.778;7.094;2023-08-06T13:28:06;3.20;;;0.60;;
5845;SDS011;2949;50.778;7.094;2023-08-06T13:30:31;0.90;;;0.50;;
5845;SDS011;2949;50.778;7.094;2023-08-06T13:32:57;0.67;;;0.67;;
5845;SDS011;2949;50.778;7.094;2023-08-06T13:35:23;0.40;;;0.40;;
5845;SDS011;2949;50.778;7.094;2023-08-06T13:37:48;1.27;;;0.60;;
5845;SDS011;2949;50.778;7.094;2023-08-06T13:40:14;0.73;;;0.60;;
5845;SDS011;2949;50.778;7.094;2023-08-06T13:42:40;1.53;;;0.80;;
5845;SDS011;2949;50.778;7.094;2023-08-06T13:45:06;4.30;;;1.03;;
5845;SDS011;2949;50.778;7.094;2023-08-06T13:47:32;1.90;;;0.80;;
5845;SDS011;2949;50.778;7.094;2023-08-06T13:49:58;2.20;;;1.10;;
5845;SDS011;2949;50.778;7.094;2023-08-06T13:52:25;2.83;;;1.27;;
5845;SDS011;2949;50.778;7.094;2023-08-06T13:54:51;6.53;;;1.20;;
5845;SDS011;2949;50.778;7.094;2023-08-06T13:57:17;1.10;;;1.00;;
5845;SDS011;2949;50.778;7.094;2023-08-06T13:59:43;1.80;;;1.53;;
5845;SDS011;2949;50.778;7.094;2023-08-06T14:02:08;3.73;;;1.37;;
5845;SDS011;2949;50.778;7.094;2023-08-06T14:04:34;6.27;;;1.30;;
5845;SDS011;2949;50.778;7.094;2023-08-06T14:07:00;2.23;;;1.47;;
5845;SDS011;2949;50.778;7.094;2023-08-06T14:09:26;6.13;;;1.50;;
5845;SDS011;2949;50.778;7.094;2023-08-06T14:11:51;0.83;;;0.83;;
5845;SDS011;2949;50.778;7.094;2023-08-06T14:14:17;0.90;;;0.80;;
5845;SDS011;2949;50.778;7.094;2023-08-06T14:16:42;4.30;;;1.40;;
5845;SDS011;2949;50.778;7.094;2023-08-06T14:19:08;2.33;;;1.30;;
5845;SDS011;2949;50.778;7.094;2023-08-06T14:21:33;6.27;;;1.10;;
5845;SDS011;2949;50.778;7.094;2023-08-06T14:23:59;3.60;;;1.33;;
5845;SDS011;2949;50.778;7.094;2023-08-06T14:26:24;5.87;;;0.90;;
5845;SDS011;2949;50.778;7.094;2023-08-06T14:28:50;4.43;;;1.03;;
5845;SDS011;2949;50.778;7.094;2023-08-06T14:31:19;1.27;;;0.80;;
5845;SDS011;2949;50.778;7.094;2023-08-06T14:33:45;3.00;;;0.87;;
5845;SDS011;2949;50.778;7.094;2023-08-06T14:36:11;5.27;;;0.60;;
5845;SDS011;2949;50.778;7.094;2023-08-06T14:38:36;2.00;;;0.67;;
5845;SDS011;2949;50.778;7.094;2023-08-06T14:41:02;0.93;;;0.50;;
5845;SDS011;2949;50.778;7.094;2023-08-06T14:43:27;3.70;;;0.60;;
5845;SDS011;2949;50.778;7.094;2023-08-06T14:45:53;1.73;;;0.60;;
5845;SDS011;2949;50.778;7.094;2023-08-06T14:48:18;1.07;;;0.73;;
5845;SDS011;2949;50.778;7.094;2023-08-06T14:50:44;7.00;;;0.90;;
5845;SDS011;2949;50.778;7.094;2023-08-06T14:53:09;2.00;;;0.70;;
5845;SDS011;2949;50.778;7.094;2023-08-06T14:55:36;1.47;;;0.60;;
5845;SDS011;2949;50.778;7.094;2023-08-06T14:58:02;5.80;;;0.80;;
5845;SDS011;2949;50.778;7.094;2023-08-06T15:00:27;1.13;;;0.40;;
5845;SDS011;2949;50.778;7.094;2023-08-06T15:02:53;1.70;;;0.50;;
5845;SDS011;2949;50.778;7.094;2023-08-06T15:05:19;0.77;;;0.40;;
5845;SDS011;2949;50.778;7.094;2023-08-06T15:07:44;3.20;;;1.70;;
5845;SDS011;2949;50.778;7.094;2023-08-06T15:10:09;2.03;;;1.20;;
5845;SDS011;2949;50.778;7.094;2023-08-06T15:12:35;2.00;;;0.40;;
5845;SDS011;2949;50.778;7.094;2023-08-06T15:15:00;0.40;;;0.40;;
5845;SDS011;2949;50.778;7.094;2023-08-06T15:17:27;1.47;;;0.40;;
5845;SDS011;2949;50.778;7.094;2023-08-06T15:19:55;1.03;;;0.30;;
5845;SDS011;2949;50.778;7.094;2023-08-06T15:22:21;1.00;;;0.40;;